Time;durP1;ratioP1;P1;durP2;ratioP2;P2;SDS_P1;SDS_P2;PMS_P1;PMS_P2;Temp;Humidity;BMP_temperature;BMP_pressure;BME280_temperature;BME280_humidity;BME280_pressure;Samples;Min_cycle;Max_cycle;Signal;HPM_P1;HPM_P2
2022/03/28 00:01:04;;;;;;;0.60;0.60;;;8.80;99.90;8.60;102504.00;;;;5097874;28;20645;-67
2022/03/28 00:03:36;;;;;;;0.50;0.50;;;8.80;99.90;8.60;102490.00;;;;5097789;28;20334;-67
2022/03/28 00:06:10;;;;;;;0.50;0.50;;;8.80;99.90;8.70;102492.00;;;;5114789;28;20188;-67
2022/03/28 00:08:41;;;;;;;0.47;0.47;;;8.90;99.90;8.80;102482.00;;;;5114223;28;20166;-68
2022/03/28 00:11:10;;;;;;;0.50;0.50;;;8.90;99.90;8.40;102482.00;;;;5097689;28;20200;-67
2022/03/28 00:13:42;;;;;;;1.63;1.57;;;8.90;99.90;9.00;102438.00;;;;5114051;28;20698;-67
2022/03/28 00:16:11;;;;;;;1.57;1.57;;;9.00;99.90;9.00;102474.00;;;;5115422;28;20518;-68
2022/03/28 00:18:37;;;;;;;0.50;0.50;;;9.00;99.90;7.90;102475.00;;;;5097308;28;20184;-67
2022/03/28 00:21:03;;;;;;;0.40;0.40;;;8.80;99.90;8.00;102481.00;;;;5114749;28;20176;-67
2022/03/28 00:23:35;;;;;;;0.30;0.30;;;8.50;99.90;8.30;102480.00;;;;5115065;28;20504;-67
2022/03/28 00:26:04;;;;;;;0.40;0.40;;;8.50;99.90;8.30;102470.00;;;;5114716;28;20518;-67
2022/03/28 00:28:33;;;;;;;0.40;0.40;;;8.50;99.90;8.40;102467.00;;;;5097396;28;20176;-67
2022/03/28 00:31:02;;;;;;;0.40;0.40;;;8.50;99.90;8.20;102461.00;;;;5097558;28;20216;-67
2022/03/28 00:33:36;;;;;;;0.40;0.40;;;8.40;99.90;8.50;102451.00;;;;5097008;28;20196;-67
2022/03/28 00:36:05;;;;;;;0.40;0.40;;;8.60;99.90;8.50;102451.00;;;;5114522;28;20530;-67
2022/03/28 00:38:37;;;;;;;0.40;0.40;;;8.60;99.90;8.40;102452.00;;;;5096189;28;20172;-67
2022/03/28 00:41:06;;;;;;;0.40;0.40;;;8.50;99.90;8.30;102459.00;;;;5096668;28;20577;-67
2022/03/28 00:43:32;;;;;;;0.43;0.43;;;8.50;99.90;8.30;102452.00;;;;5113940;28;20632;-68
2022/03/28 00:45:58;;;;;;;0.60;0.60;;;8.50;99.90;8.50;102449.00;;;;5097403;28;20700;-67
2022/03/28 00:48:27;;;;;;;1.07;1.07;;;8.60;99.90;8.30;102435.00;;;;5097226;28;20271;-67
2022/03/28 00:50:57;;;;;;;0.40;0.40;;;8.50;99.90;8.00;102393.00;;;;5114290;28;20177;-67
2022/03/28 00:53:28;;;;;;;0.60;0.60;;;8.50;99.90;8.10;102441.00;;;;5113651;28;20165;-68
2022/03/28 00:56:00;;;;;;;0.50;0.50;;;8.40;99.90;8.30;102435.00;;;;5113645;28;20616;-68
2022/03/28 00:58:33;;;;;;;0.40;0.40;;;8.30;99.90;8.60;102443.00;;;;5096763;28;20182;-68
2022/03/28 01:01:09;;;;;;;0.40;0.40;;;8.60;99.90;8.70;102420.00;;;;5097072;28;20637;-68
2022/03/28 01:03:38;;;;;;;0.40;0.40;;;8.70;99.90;8.20;102393.00;;;;5097038;28;20707;-67
2022/03/28 01:06:07;;;;;;;0.40;0.40;;;8.60;99.90;8.30;102435.00;;;;5096545;28;20669;-67
2022/03/28 01:08:44;;;;;;;0.80;0.80;;;8.40;99.90;7.80;102423.00;;;;5113834;28;20177;-68
2022/03/28 01:11:13;;;;;;;0.67;0.67;;;8.40;99.90;8.00;102413.00;;;;5112835;28;20600;-67
2022/03/28 01:13:42;;;;;;;0.37;0.37;;;8.20;99.90;7.70;102428.00;;;;5096383;28;20188;-67
2022/03/28 01:16:13;;;;;;;0.40;0.40;;;8.10;99.90;8.30;102424.00;;;;5096630;28;20208;-67
2022/03/28 01:18:51;;;;;;;0.60;0.60;;;8.20;99.90;7.70;102430.00;;;;5096713;28;20192;-67
2022/03/28 01:21:25;;;;;;;0.40;0.40;;;8.20;99.90;8.00;102418.00;;;;5114631;28;20198;-68
2022/03/28 01:23:59;;;;;;;0.50;0.50;;;8.20;99.90;8.00;102409.00;;;;5112687;28;20178;-67
2022/03/28 01:26:35;;;;;;;0.43;0.43;;;8.10;99.90;8.00;102411.00;;;;5113689;28;20191;-68
2022/03/28 01:29:07;;;;;;;0.40;0.40;;;8.10;99.90;8.30;102398.00;;;;5096303;28;20622;-67
2022/03/28 01:31:42;;;;;;;0.40;0.40;;;8.20;99.90;7.90;102345.00;;;;5096024;28;20562;-67
2022/03/28 01:34:28;;;;;;;0.60;0.60;;;8.20;99.90;8.00;102392.00;;;;5095295;28;20209;-67
2022/03/28 01:37:06;;;;;;;0.40;0.40;;;8.10;99.90;7.90;102393.00;;;;5096157;28;20192;-66
2022/03/28 01:39:37;;;;;;;3.37;3.07;;;8.00;99.90;8.30;102398.00;;;;5095999;28;20206;-67
2022/03/28 01:42:08;;;;;;;0.40;0.40;;;8.20;99.90;8.60;102393.00;;;;5095240;28;20183;-67
2022/03/28 01:44:42;;;;;;;0.50;0.50;;;8.50;99.90;8.80;102375.00;;;;5095519;28;20202;-67
2022/03/28 01:47:13;;;;;;;0.40;0.40;;;8.80;99.90;8.40;102378.00;;;;5095826;28;20289;-66
2022/03/28 01:49:44;;;;;;;0.50;0.50;;;8.70;99.90;8.80;102392.00;;;;5114298;28;20183;-68
2022/03/28 01:52:19;;;;;;;0.40;0.40;;;8.70;99.90;8.70;102384.00;;;;5111253;28;20265;-68
2022/03/28 01:54:50;;;;;;;0.40;0.40;;;8.80;99.90;8.50;102375.00;;;;5110732;28;20213;-68
2022/03/28 01:57:19;;;;;;;0.47;0.47;;;8.70;99.90;8.40;102382.00;;;;5095505;28;20239;-68
2022/03/28 01:59:50;;;;;;;0.50;0.50;;;8.60;99.90;8.90;102367.00;;;;5112475;28;20248;-68
2022/03/28 02:02:24;;;;;;;0.50;0.50;;;8.70;99.90;8.90;102374.00;;;;5095825;28;20188;-68
2022/03/28 02:04:55;;;;;;;0.97;0.97;;;8.90;99.90;9.10;102367.00;;;;5093760;28;20213;-68
2022/03/28 02:07:27;;;;;;;0.40;0.40;;;9.00;99.90;9.00;102368.00;;;;5112165;28;20180;-68
2022/03/28 02:09:58;;;;;;;0.40;0.40;;;9.10;99.90;8.80;102360.00;;;;5095636;28;20225;-68
2022/03/28 02:12:32;;;;;;;0.87;0.87;;;9.00;99.90;9.10;102366.00;;;;5095411;28;20206;-68
2022/03/28 02:15:06;;;;;;;2.77;2.67;;;9.10;99.90;7.70;102358.00;;;;5095459;28;20193;-68
2022/03/28 02:17:38;;;;;;;0.40;0.40;;;8.80;99.90;7.60;102359.00;;;;5095885;28;20755;-68
2022/03/28 02:20:11;;;;;;;0.40;0.40;;;8.30;99.90;7.50;102355.00;;;;5111979;28;20187;-68
2022/03/28 02:22:45;;;;;;;0.40;0.40;;;8.00;99.90;8.40;102363.00;;;;5112640;28;20268;-68
2022/03/28 02:25:15;;;;;;;0.67;0.67;;;8.30;99.90;8.50;102351.00;;;;5113246;28;20159;-68
2022/03/28 02:27:46;;;;;;;1.30;1.30;;;8.40;99.90;8.30;102360.00;;;;5112506;28;20176;-68
2022/03/28 02:30:17;;;;;;;0.40;0.40;;;8.50;99.90;7.90;102354.00;;;;5095124;28;20182;-68
2022/03/28 02:32:49;;;;;;;0.47;0.47;;;8.30;99.90;7.80;102355.00;;;;5112094;28;20576;-68
2022/03/28 02:35:23;;;;;;;0.50;0.50;;;8.10;99.90;8.00;102352.00;;;;5096038;28;20191;-68
2022/03/28 02:37:54;;;;;;;0.40;0.40;;;8.00;99.90;7.80;102353.00;;;;5111463;28;20177;-68
2022/03/28 02:40:26;;;;;;;0.50;0.50;;;8.00;99.90;7.70;102330.00;;;;5112853;28;20179;-68
2022/03/28 02:42:58;;;;;;;0.60;0.60;;;7.80;99.90;8.00;102308.00;;;;5095223;28;20190;-68
2022/03/28 02:45:36;;;;;;;0.40;0.40;;;7.90;99.90;7.90;102342.00;;;;5112415;28;20174;-68
2022/03/28 02:48:07;;;;;;;0.40;0.40;;;7.90;99.90;7.80;102339.00;;;;5094350;28;20183;-68
2022/03/28 02:50:47;;;;;;;0.50;0.50;;;7.90;99.90;7.70;102273.00;;;;5095500;28;20183;-68
2022/03/28 02:53:19;;;;;;;0.40;0.40;;;7.80;99.90;7.50;102330.00;;;;5094819;28;20278;-68
2022/03/28 02:55:50;;;;;;;0.50;0.50;;;7.80;99.90;7.40;102305.00;;;;5094855;28;20188;-68
2022/03/28 02:58:24;;;;;;;0.50;0.50;;;7.60;99.90;7.40;102328.00;;;;5112558;28;20198;-68
2022/03/28 03:00:53;;;;;;;0.93;0.93;;;7.50;99.90;7.30;102330.00;;;;5095399;28;20274;-69
2022/03/28 03:03:24;;;;;;;0.50;0.50;;;7.50;99.90;7.20;102324.00;;;;5111234;28;20187;-68
2022/03/28 03:05:58;;;;;;;0.50;0.50;;;7.40;99.90;7.40;102309.00;;;;5095695;28;20225;-68
2022/03/28 03:08:27;;;;;;;0.40;0.40;;;7.50;99.90;7.40;102302.00;;;;5094825;28;20259;-68
2022/03/28 03:10:56;;;;;;;0.50;0.50;;;7.50;99.90;7.50;102318.00;;;;5094842;28;20194;-66
2022/03/28 03:13:22;;;;;;;0.40;0.40;;;7.50;99.90;7.30;102313.00;;;;5094691;28;20184;-66
2022/03/28 03:15:53;;;;;;;0.40;0.40;;;7.50;99.90;7.30;102314.00;;;;5094813;28;20547;-67
2022/03/28 03:18:24;;;;;;;0.50;0.50;;;7.40;99.90;7.10;102312.00;;;;5112870;28;20203;-66
2022/03/28 03:20:56;;;;;;;0.47;0.47;;;7.30;99.90;7.00;102304.00;;;;5116317;28;20187;-66
2022/03/28 03:23:25;;;;;;;0.50;0.50;;;7.30;99.90;7.20;102313.00;;;;5115314;28;20182;-67
2022/03/28 03:25:58;;;;;;;0.50;0.50;;;7.30;99.90;7.00;102301.00;;;;5116138;28;20172;-67
2022/03/28 03:28:29;;;;;;;0.50;0.50;;;7.20;99.90;7.00;102312.00;;;;5115638;28;20256;-67
2022/03/28 03:30:58;;;;;;;0.63;0.63;;;7.10;99.90;6.90;102302.00;;;;5097694;28;20657;-67
2022/03/28 03:33:29;;;;;;;0.50;0.50;;;7.10;99.90;7.10;102298.00;;;;5098401;28;20195;-67
2022/03/28 03:36:00;;;;;;;0.50;0.50;;;7.10;99.90;6.90;102300.00;;;;5116034;28;20607;-66
2022/03/28 03:38:29;;;;;;;1.93;1.83;;;7.10;99.90;6.60;102256.00;;;;5098671;28;20179;-67
2022/03/28 03:41:01;;;;;;;0.47;0.47;;;7.10;99.90;6.60;102300.00;;;;5115332;28;20178;-66
2022/03/28 03:43:27;;;;;;;0.50;0.50;;;7.00;99.90;6.90;102284.00;;;;5114815;28;20269;-67
2022/03/28 03:45:56;;;;;;;3.13;3.03;;;7.10;99.90;6.50;102296.00;;;;5115712;28;20170;-66
2022/03/28 03:48:29;;;;;;;0.40;0.40;;;7.00;99.90;6.70;102239.00;;;;5097629;28;20172;-66
2022/03/28 03:50:55;;;;;;;0.40;0.40;;;6.90;99.90;6.70;102289.00;;;;5115218;28;20633;-67
2022/03/28 03:53:26;;;;;;;0.40;0.40;;;6.90;99.90;6.90;102287.00;;;;5116002;28;20183;-67
2022/03/28 03:55:59;;;;;;;0.40;0.40;;;6.90;99.90;6.80;102286.00;;;;5115285;28;20179;-67
2022/03/28 03:58:30;;;;;;;1.60;1.50;;;6.90;99.90;6.70;102287.00;;;;5115328;28;20634;-67
2022/03/28 04:00:58;;;;;;;0.40;0.40;;;6.90;99.90;7.00;102283.00;;;;5096831;28;20181;-67
2022/03/28 04:03:31;;;;;;;0.50;0.50;;;7.00;99.90;6.60;102290.00;;;;5098084;28;20223;-67
2022/03/28 04:06:03;;;;;;;2.00;0.80;;;6.90;99.90;6.60;102283.00;;;;5115249;28;20529;-67
2022/03/28 04:08:29;;;;;;;0.33;0.33;;;6.90;99.90;6.60;102279.00;;;;5096615;28;20273;-67
2022/03/28 04:10:55;;;;;;;0.47;0.47;;;6.80;99.90;6.70;102273.00;;;;5098198;28;20270;-67
2022/03/28 04:13:29;;;;;;;0.40;0.40;;;6.80;99.90;6.80;102284.00;;;;5115114;28;20175;-67
2022/03/28 04:16:01;;;;;;;0.30;0.30;;;6.80;99.90;6.80;102287.00;;;;5115104;28;20215;-67
2022/03/28 04:18:35;;;;;;;0.40;0.40;;;6.90;99.90;6.60;102275.00;;;;5114732;28;20217;-67
2022/03/28 04:21:01;;;;;;;0.40;0.40;;;6.80;99.90;6.60;102284.00;;;;5115920;28;20178;-68
2022/03/28 04:23:35;;;;;;;0.40;0.40;;;6.70;99.90;6.90;102287.00;;;;5097650;28;20264;-65
2022/03/28 04:26:00;;;;;;;0.40;0.40;;;6.80;99.90;6.70;102282.00;;;;5114281;28;20548;-65
2022/03/28 04:28:29;;;;;;;0.40;0.40;;;6.80;99.90;6.40;102223.00;;;;5097715;28;20273;-66
2022/03/28 04:31:04;;;;;;;0.50;0.50;;;6.80;99.90;6.60;102278.00;;;;5097417;28;20184;-68
2022/03/28 04:33:30;;;;;;;1.63;1.63;;;6.70;99.90;6.80;102267.00;;;;5096799;28;20270;-66
2022/03/28 04:35:56;;;;;;;0.40;0.40;;;6.80;99.90;6.70;102265.00;;;;5097194;28;20268;-66
2022/03/28 04:38:27;;;;;;;0.40;0.40;;;6.80;99.90;6.80;102275.00;;;;5114312;28;20701;-68
2022/03/28 04:40:58;;;;;;;0.40;0.40;;;6.80;99.90;6.80;102257.00;;;;5114718;28;20646;-67
2022/03/28 04:43:30;;;;;;;0.50;0.50;;;6.80;99.90;6.60;102257.00;;;;5097663;28;20184;-67
2022/03/28 04:46:01;;;;;;;0.40;0.40;;;6.80;99.90;6.60;102261.00;;;;5097626;28;20277;-68
2022/03/28 04:48:29;;;;;;;0.40;0.40;;;6.70;99.90;6.50;102267.00;;;;5113229;28;20236;-67
2022/03/28 04:51:00;;;;;;;0.67;0.67;;;6.60;99.90;6.20;102266.00;;;;5096932;28;20185;-67
2022/03/28 04:53:31;;;;;;;0.50;0.50;;;6.60;99.90;6.40;102283.00;;;;5096120;28;20181;-66
2022/03/28 04:56:03;;;;;;;0.97;0.97;;;6.60;99.90;6.50;102272.00;;;;5097157;28;20180;-67
2022/03/28 04:58:32;;;;;;;0.43;0.43;;;6.60;99.90;6.20;102264.00;;;;5096185;28;20181;-66
2022/03/28 05:01:03;;;;;;;0.40;0.40;;;6.50;99.90;6.40;102265.00;;;;5097025;28;20191;-67
2022/03/28 05:03:29;;;;;;;0.40;0.40;;;6.50;99.90;6.40;102271.00;;;;5095749;28;20210;-66
2022/03/28 05:05:59;;;;;;;0.50;0.50;;;6.50;99.90;6.40;102282.00;;;;5095433;28;20223;-66
2022/03/28 05:08:27;;;;;;;0.40;0.40;;;6.50;99.90;6.70;102265.00;;;;5096937;28;20194;-66
2022/03/28 05:10:55;;;;;;;0.40;0.40;;;6.70;99.90;6.30;102244.00;;;;5113344;28;20205;-67
2022/03/28 05:13:25;;;;;;;0.40;0.40;;;6.50;99.90;6.60;102274.00;;;;5096796;28;20205;-67
2022/03/28 05:15:55;;;;;;;0.40;0.40;;;6.60;99.90;6.60;102230.00;;;;5096677;28;20273;-67
2022/03/28 05:18:21;;;;;;;0.40;0.40;;;6.60;99.90;6.30;102255.00;;;;5096526;28;20185;-66
2022/03/28 05:20:55;;;;;;;0.50;0.50;;;6.60;99.90;6.40;102260.00;;;;5095844;28;20178;-66
2022/03/28 05:23:32;;;;;;;0.40;0.40;;;6.60;99.90;6.20;102251.00;;;;5113306;28;20176;-68
2022/03/28 05:26:03;;;;;;;0.40;0.40;;;6.50;99.90;6.40;102268.00;;;;5114083;28;20179;-66
2022/03/28 05:28:35;;;;;;;0.50;0.50;;;6.50;99.90;5.90;102259.00;;;;5096356;28;20272;-67
2022/03/28 05:31:07;;;;;;;0.60;0.60;;;6.50;99.90;6.00;102265.00;;;;5113428;28;20221;-67
2022/03/28 05:33:39;;;;;;;0.40;0.40;;;6.30;99.90;6.50;102262.00;;;;5112607;28;20261;-67
2022/03/28 05:36:12;;;;;;;0.70;0.70;;;6.50;99.90;5.90;102273.00;;;;5096261;28;20204;-67
2022/03/28 05:38:47;;;;;;;0.50;0.50;;;6.40;99.90;5.90;102263.00;;;;5113609;28;20212;-67
2022/03/28 05:41:18;;;;;;;0.40;0.40;;;6.30;99.90;6.30;102222.00;;;;5112641;28;20181;-68
2022/03/28 05:43:49;;;;;;;0.50;0.50;;;6.40;99.90;6.50;102269.00;;;;5112669;28;20206;-68
2022/03/28 05:46:21;;;;;;;0.50;0.50;;;6.50;99.90;6.30;102270.00;;;;5096145;28;20190;-67
2022/03/28 05:48:53;;;;;;;0.40;0.40;;;6.60;99.90;6.00;102271.00;;;;5094599;28;20539;-67
2022/03/28 05:51:22;;;;;;;0.40;0.40;;;6.50;99.90;6.50;102268.00;;;;5112666;28;20191;-67
2022/03/28 05:53:53;;;;;;;0.50;0.50;;;6.60;99.90;6.80;102259.00;;;;5095300;28;20231;-68
2022/03/28 05:56:25;;;;;;;0.77;0.77;;;6.70;99.90;6.90;102261.00;;;;5095958;28;20184;-67
2022/03/28 05:59:02;;;;;;;0.50;0.50;;;6.90;99.90;6.80;102261.00;;;;5112077;28;20181;-67
2022/03/28 06:01:35;;;;;;;0.40;0.40;;;6.90;99.90;6.90;102266.00;;;;5096860;28;20580;-68
2022/03/28 06:04:12;;;;;;;0.97;0.97;;;7.00;99.90;7.30;102257.00;;;;5113248;28;20259;-67
2022/03/28 06:06:45;;;;;;;0.50;0.50;;;7.10;99.90;7.70;102262.00;;;;5114526;28;20633;-67
2022/03/28 06:09:17;;;;;;;0.47;0.47;;;7.40;99.90;7.50;102250.00;;;;5112870;28;20189;-67
2022/03/28 06:11:51;;;;;;;0.50;0.50;;;7.60;99.90;7.70;102250.00;;;;5095470;28;20204;-67
2022/03/28 06:14:28;;;;;;;0.50;0.50;;;7.70;99.90;8.30;102202.00;;;;5096147;28;20177;-67
2022/03/28 06:16:59;;;;;;;1.33;1.33;;;8.10;99.90;8.50;102250.00;;;;5095943;28;20186;-67
2022/03/28 06:19:34;;;;;;;1.17;1.17;;;8.30;99.90;8.80;102251.00;;;;5112493;28;20237;-67
2022/03/28 06:22:04;;;;;;;0.50;0.50;;;8.50;99.90;9.20;102259.00;;;;5112332;28;20186;-67
2022/03/28 06:24:38;;;;;;;0.40;0.40;;;8.80;99.90;9.30;102252.00;;;;5112232;28;20263;-67
2022/03/28 06:27:15;;;;;;;0.50;0.50;;;9.20;99.90;9.90;102248.00;;;;5112712;28;20194;-67
2022/03/28 06:29:49;;;;;;;0.50;0.50;;;9.50;99.90;10.40;102251.00;;;;5113002;28;20186;-67
2022/03/28 06:32:25;;;;;;;0.50;0.50;;;10.00;99.90;10.70;102243.00;;;;5094797;28;20222;-67
2022/03/28 06:34:52;;;;;;;6.03;3.33;;;10.40;99.90;11.20;102238.00;;;;5112557;28;20243;-67
2022/03/28 06:37:22;;;;;;;0.40;0.40;;;10.80;99.90;9.90;102202.00;;;;5095403;28;20183;-67
2022/03/28 06:39:59;;;;;;;0.30;0.30;;;10.60;99.90;10.00;102234.00;;;;5113827;28;20647;-67
2022/03/28 06:42:32;;;;;;;0.30;0.30;;;10.40;99.90;10.00;102184.00;;;;5111819;28;20249;-67
2022/03/28 06:45:09;;;;;;;0.40;0.40;;;10.20;99.90;11.70;102198.00;;;;5112465;28;20184;-67
2022/03/28 06:47:35;;;;;;;0.30;0.30;;;11.10;99.90;12.30;102242.00;;;;5112581;28;20175;-67
2022/03/28 06:50:08;;;;;;;0.30;0.30;;;11.70;99.90;12.50;102247.00;;;;5112670;28;20180;-67
2022/03/28 06:56:35;;;;;;;0.40;0.40;;;11.40;99.90;11.20;102249.00;;;;5116482;28;20692;-67
2022/03/28 06:59:09;;;;;;;0.67;0.67;;;11.50;99.90;11.70;102199.00;;;;5115926;28;20162;-67
2022/03/28 07:01:43;;;;;;;0.63;0.63;;;11.60;99.90;12.30;102252.00;;;;5098433;28;20275;-66
2022/03/28 07:04:20;;;;;;;0.67;0.67;;;12.20;99.90;12.50;102257.00;;;;5116264;28;20182;-66
2022/03/28 07:06:54;;;;;;;1.70;1.70;;;12.40;99.90;13.00;102263.00;;;;5117535;28;20176;-66
2022/03/28 07:09:20;;;;;;;0.30;0.30;;;12.90;99.90;14.50;102276.00;;;;5116265;28;20627;-66
2022/03/28 07:11:46;;;;;;;0.40;0.40;;;13.70;99.90;13.40;102246.00;;;;5098794;28;20206;-66
2022/03/28 07:15:04;;;;;;;0.33;0.33;;;13.60;99.90;12.20;102252.00;;;;5098896;28;20645;-65
2022/03/28 07:18:32;;;;;;;0.27;0.27;;;12.70;99.90;13.60;102248.00;;;;5107167;28;20665;-66
2022/03/28 07:20:58;;;;;;;1.17;1.17;;;12.90;99.90;14.80;102287.00;;;;5106220;28;20190;-66
2022/03/28 07:23:31;;;;;;;0.60;0.60;;;14.30;99.90;16.00;102299.00;;;;5098724;28;20215;-66
2022/03/28 07:26:03;;;;;;;1.45;0.57;;;14.90;99.90;17.10;102322.00;;;;5117365;28;20175;-66
2022/03/28 07:28:38;;;;;;;2.30;2.15;;;16.00;99.90;16.20;102329.00;;;;5115940;28;20201;-66
2022/03/28 07:31:10;;;;;;;0.10;0.10;;;16.20;99.90;17.80;102345.00;;;;5105459;28;20192;-66
2022/03/28 07:34:29;;;;;;;0.45;0.45;;;16.80;99.90;15.80;102350.00;;;;5112969;28;20208;-67
2022/03/28 07:37:58;;;;;;;0.15;0.15;;;16.30;99.90;16.80;102298.00;;;;5116897;28;20635;-66
2022/03/28 07:40:30;;;;;;;0.47;0.47;;;16.60;99.90;17.90;102375.00;;;;5093279;28;20204;-67
2022/03/28 07:43:39;;;;;;;1.75;1.65;;;17.10;99.90;17.20;102378.00;;;;5116552;28;20239;-67
2022/03/28 07:46:10;;;;;;;0.30;0.30;;;17.20;99.90;18.60;102391.00;;;;5112485;28;20204;-67
2022/03/28 07:48:57;;;;;;;0.20;0.20;;;17.70;99.90;15.70;102352.00;;;;5114840;28;20221;-67
2022/03/28 07:51:24;;;;;;;0.75;0.75;;;16.30;99.90;15.90;102334.00;;;;5086732;28;20237;-67
2022/03/28 07:53:56;;;;;;;0.30;0.30;;;15.90;99.90;14.70;102335.00;;;;5073262;28;20272;-67
2022/03/28 07:56:24;;;;;;;0.15;0.15;;;15.40;99.90;15.30;102304.00;;;;5058734;28;20182;-67
2022/03/28 07:58:53;;;;;;;0.20;0.20;;;15.00;99.90;17.60;102353.00;;;;5058031;28;20177;-68
2022/03/28 08:01:27;;;;;;;0.40;0.40;;;16.40;99.90;15.20;102301.00;;;;5074851;28;20182;-66
2022/03/28 08:03:58;;;;;;;1.00;0.55;;;15.70;99.90;16.00;102338.00;;;;5073966;28;20188;-67
2022/03/28 08:06:30;;;;;;;1.65;1.45;;;16.10;99.90;17.00;102338.00;;;;5057696;28;20227;-67
2022/03/28 08:09:41;;;;;;;0.40;0.40;;;16.30;99.90;15.70;102317.00;;;;5058208;28;20671;-69
2022/03/28 08:12:10;;;;;;;0.75;0.75;;;16.20;99.90;16.60;102333.00;;;;5074495;28;20185;-69
2022/03/28 08:14:39;;;;;;;2.70;0.60;;;16.20;99.90;15.60;102335.00;;;;5057317;28;20231;-69
2022/03/28 08:17:06;;;;;;;1.35;1.05;;;15.70;99.90;16.50;102354.00;;;;5074554;28;20272;-70
2022/03/28 08:20:59;;;;;;;0.30;0.30;;;16.50;99.90;17.20;102347.00;;;;5057834;28;20180;-70
2022/03/28 08:23:35;;;;;;;0.20;0.20;;;16.70;99.90;19.20;102332.00;;;;5072859;28;20225;-72
2022/03/28 08:26:09;;;;;;;0.10;0.10;;;18.10;99.90;20.20;102376.00;;;;5074738;28;20215;-68
2022/03/28 08:28:39;;;;;;;2.72;1.85;;;19.10;99.90;15.90;102368.00;;;;5072909;28;20173;-71
2022/03/28 08:31:06;;;;;;;2.03;1.77;;;17.70;99.90;15.50;102331.00;;;;5074921;28;20277;-67
2022/03/28 08:33:40;;;;;;;1.03;1.03;;;16.00;99.90;16.90;102332.00;;;;5075707;28;20203;-69
2022/03/28 08:36:14;;;;;;;1.13;1.13;;;16.30;99.90;15.00;102276.00;;;;5073655;28;20183;-60
2022/03/28 08:38:40;;;;;;;0.20;0.20;;;15.40;99.90;17.10;102324.00;;;;5075130;28;20195;-69
2022/03/28 08:41:29;;;;;;;0.40;0.40;;;16.20;99.90;18.70;102338.00;;;;5056605;28;20191;-67
2022/03/28 08:43:54;;;;;;;1.17;0.73;;;17.60;99.90;19.00;102362.00;;;;5056943;28;20248;-67
2022/03/28 08:46:20;;;;;;;11.98;11.25;;;18.40;99.90;19.00;102374.00;;;;5073321;28;20588;-68
2022/03/28 08:48:48;;;;;;;7.53;4.47;;;18.60;99.90;19.60;102388.00;;;;5073699;28;20271;-67
2022/03/28 08:51:36;;;;;;;2.05;1.95;;;18.80;99.90;20.10;102396.00;;;;5056853;28;20187;-67
2022/03/28 08:54:04;;;;;;;0.47;0.47;;;19.30;99.90;18.90;102381.00;;;;5073422;28;20268;-68
2022/03/28 08:56:35;;;;;;;0.38;0.38;;;19.20;99.90;20.30;102392.00;;;;5074507;28;20170;-68
2022/03/28 08:59:01;;;;;;;0.38;0.38;;;19.50;99.90;20.60;102401.00;;;;5074503;28;20209;-69
2022/03/28 09:01:29;;;;;;;1.52;0.98;;;20.10;99.90;20.60;102404.00;;;;5073333;28;20237;-69
2022/03/28 09:03:55;;;;;;;0.47;0.47;;;20.30;99.90;19.30;102394.00;;;;5073530;28;20190;-60
2022/03/28 09:06:38;;;;;;;0.98;0.43;;;19.90;99.90;20.40;102400.00;;;;5074389;28;20173;-59
2022/03/28 09:09:27;;;;;;;2.42;1.23;;;20.00;99.90;20.60;102417.00;;;;5074568;28;20173;-60
2022/03/28 09:11:58;;;;;;;0.15;0.15;;;20.10;99.90;21.10;102406.00;;;;5074119;28;20272;-59
2022/03/28 09:14:37;;;;;;;1.55;1.45;;;20.40;99.90;21.80;102407.00;;;;5074087;28;20184;-60
2022/03/28 09:17:18;;;;;;;0.85;0.85;;;20.90;99.90;20.70;102400.00;;;;5071209;28;20174;-59
2022/03/28 09:20:02;;;;;;;0.30;0.30;;;21.00;99.90;21.00;102400.00;;;;5061486;28;20228;-57
2022/03/28 09:22:35;;;;;;;2.20;0.98;;;20.60;99.90;21.50;102399.00;;;;5052508;28;20263;-57
2022/03/28 09:25:08;;;;;;;0.28;0.28;;;20.90;99.90;21.50;102352.00;;;;5053596;28;20186;-57
2022/03/28 09:27:37;;;;;;;1.27;1.27;;;21.00;99.90;21.60;102382.00;;;;5052317;28;20520;-58
2022/03/28 09:30:10;;;;;;;0.10;0.10;;;21.10;99.90;21.30;102383.00;;;;5072654;28;20192;-58
2022/03/28 09:32:59;;;;;;;0.60;0.60;;;21.00;99.90;21.60;102361.00;;;;5072735;28;20185;-62
2022/03/28 09:35:26;;;;;;;0.17;0.17;;;20.90;99.90;21.00;102371.00;;;;5070861;28;20189;-68
2022/03/28 09:38:03;;;;;;;0.20;0.20;;;20.90;99.90;21.60;102355.00;;;;5073797;28;20667;-68
2022/03/28 09:40:37;;;;;;;3.08;2.90;;;21.00;99.90;19.60;102364.00;;;;5073133;28;20208;-67
2022/03/28 09:43:14;;;;;;;0.10;0.10;;;20.50;99.90;20.10;102349.00;;;;5073280;28;20220;-67
2022/03/28 09:45:50;;;;;;;1.75;1.75;;;20.00;99.90;21.30;102354.00;;;;5052620;28;20182;-68
2022/03/28 09:48:33;;;;;;;1.27;1.23;;;20.40;99.90;21.50;102352.00;;;;5053616;28;20192;-68
2022/03/28 09:51:09;;;;;;;0.55;0.55;;;20.70;99.90;19.50;102344.00;;;;5055356;28;20319;-68
2022/03/28 09:53:39;;;;;;;26.38;1.00;;;20.30;99.90;20.70;102356.00;;;;5073252;28;20192;-68
2022/03/28 09:56:11;;;;;;;1.30;1.05;;;20.30;99.90;22.10;102314.00;;;;5063857;28;20185;-68
2022/03/28 09:59:01;;;;;;;0.10;0.10;;;20.90;99.90;22.90;102347.00;;;;5072334;28;20314;-68
2022/03/28 10:01:39;;;;;;;0.52;0.52;;;21.80;99.90;23.00;102330.00;;;;5072275;28;20181;-69
2022/03/28 10:04:11;;;;;;;2.28;1.35;;;22.20;99.90;22.10;102327.00;;;;5071956;28;20331;-62
2022/03/28 10:06:39;;;;;;;2.33;2.17;;;22.00;99.90;21.80;102326.00;;;;5073669;28;20581;-69
2022/03/28 10:09:07;;;;;;;1.48;1.42;;;21.60;99.90;20.40;102317.00;;;;5072170;28;20268;-70
2022/03/28 10:11:44;;;;;;;0.10;0.10;;;21.10;99.90;21.10;102296.00;;;;5072085;28;20181;-69
2022/03/28 10:14:10;;;;;;;0.90;0.90;;;20.90;99.90;20.80;102323.00;;;;5072425;28;20178;-69
2022/03/28 10:16:37;;;;;;;1.30;1.20;;;21.00;99.90;21.50;102314.00;;;;5055505;28;20189;-69
2022/03/28 10:19:05;;;;;;;0.30;0.30;;;21.00;99.90;21.90;102313.00;;;;5072272;28;20181;-68
2022/03/28 10:33:22;;;;;;;0.10;0.10;;;20.70;99.90;20.40;102286.00;;;;5122248;27;1312922;-70
2022/03/28 10:36:02;;;;;;;0.30;0.30;;;20.70;99.90;22.00;102297.00;;;;5122965;28;20184;-70
2022/03/28 10:38:29;;;;;;;3.05;2.85;;;21.30;99.90;21.70;102286.00;;;;5143642;28;20167;-69
2022/03/28 10:41:05;;;;;;;1.23;1.23;;;21.70;99.90;21.10;102292.00;;;;5143145;27;20187;-71
2022/03/28 10:43:35;;;;;;;2.28;1.98;;;21.30;99.90;21.40;102290.00;;;;5138983;28;20179;-71
2022/03/28 10:46:05;;;;;;;0.20;0.20;;;21.20;99.90;21.00;102294.00;;;;5133340;28;20262;-71
2022/03/28 10:49:00;;;;;;;1.83;1.73;;;20.90;99.90;20.80;102284.00;;;;5140045;28;20190;-71
2022/03/28 10:51:30;;;;;;;1.35;1.35;;;20.80;99.90;20.10;102294.00;;;;5141023;28;20230;-71
2022/03/28 10:54:03;;;;;;;1.40;0.65;;;20.20;99.90;19.60;102289.00;;;;5114399;28;20638;-71
2022/03/28 10:56:37;;;;;;;3.92;0.77;;;19.90;99.90;20.70;102281.00;;;;5134014;27;20535;-68
2022/03/28 10:59:17;;;;;;;0.95;0.95;;;20.10;99.90;20.30;102250.00;;;;5132038;28;20180;-68
2022/03/28 11:01:46;;;;;;;3.78;1.20;;;20.40;99.90;20.60;102243.00;;;;5109082;28;20218;-68
2022/03/28 11:04:24;;;;;;;0.50;0.50;;;20.30;99.90;21.20;102270.00;;;;5111769;28;20242;-68
2022/03/28 11:06:59;;;;;;;2.65;0.68;;;20.60;99.90;20.70;102274.00;;;;5108916;28;20272;-68
2022/03/28 11:09:45;;;;;;;0.85;0.85;;;20.40;99.90;21.10;102274.00;;;;5110355;28;20191;-68
2022/03/28 11:12:29;;;;;;;1.40;1.23;;;20.70;99.90;21.50;102272.00;;;;5109996;28;20201;-68
2022/03/28 11:15:15;;;;;;;4.45;2.22;;;21.10;99.90;19.60;102262.00;;;;5109559;28;20255;-68
2022/03/28 11:18:02;;;;;;;1.55;1.45;;;20.40;99.90;19.70;102274.00;;;;5092184;28;20184;-68
2022/03/28 11:20:43;;;;;;;2.42;0.63;;;19.90;99.90;21.00;102256.00;;;;5110253;28;20225;-69
2022/03/28 11:23:15;;;;;;;0.10;0.10;;;20.20;99.90;21.00;102251.00;;;;5108979;28;20309;-69
2022/03/28 11:25:51;;;;;;;0.93;0.93;;;20.60;99.90;20.60;102249.00;;;;5108479;28;20615;-69
2022/03/28 11:28:23;;;;;;;0.38;0.38;;;20.70;99.90;20.50;102239.00;;;;5110285;28;20165;-69
2022/03/28 11:30:55;;;;;;;0.47;0.47;;;20.70;99.90;20.80;102219.00;;;;5109945;28;20200;-68
2022/03/28 11:33:39;;;;;;;0.10;0.10;;;20.80;99.90;22.10;102244.00;;;;5111340;28;20200;-69
2022/03/28 11:36:18;;;;;;;0.98;0.98;;;21.30;99.90;21.40;102239.00;;;;5111471;28;20202;-70
2022/03/28 11:38:47;;;;;;;1.75;1.38;;;21.20;99.90;21.00;102233.00;;;;5126830;28;20168;-69